Time;durP1;ratioP1;P1;durP2;ratioP2;P2;SDS_P1;SDS_P2;PMS_P1;PMS_P2;Temp;Humidity;BMP_temperature;BMP_pressure;BME280_temperature;BME280_humidity;BME280_pressure;Samples;Min_cycle;Max_cycle;Signal;HPM_P1;HPM_P2
2023/06/03 00:00:22;;;;;;;2.50;1.83;;;14.90;90.60;;;;;;5095211;28;20448;-84
2023/06/03 00:02:52;;;;;;;2.90;1.20;;;14.90;90.70;;;;;;5095007;28;20452;-84
2023/06/03 00:05:19;;;;;;;2.10;1.10;;;14.90;90.90;;;;;;5095555;28;20475;-87
2023/06/03 00:07:46;;;;;;;3.23;1.60;;;14.90;90.80;;;;;;5096169;28;20479;-88
2023/06/03 00:10:14;;;;;;;1.83;1.47;;;14.90;90.90;;;;;;5095920;28;20448;-88
2023/06/03 00:12:41;;;;;;;6.30;1.20;;;14.80;91.20;;;;;;5096253;28;20448;-88
2023/06/03 00:15:09;;;;;;;2.17;1.23;;;14.70;91.20;;;;;;5096386;28;20971;-88
2023/06/03 00:17:35;;;;;;;1.87;1.40;;;14.70;91.50;;;;;;5096164;28;20908;-88
2023/06/03 00:20:09;;;;;;;4.17;1.37;;;14.70;91.80;;;;;;5095922;28;20478;-87
2023/06/03 00:22:36;;;;;;;1.70;1.30;;;14.80;91.50;;;;;;5095197;28;20511;-89
2023/06/03 00:25:03;;;;;;;4.67;1.20;;;14.70;91.70;;;;;;5095376;28;20848;-88
2023/06/03 00:27:30;;;;;;;1.10;1.00;;;14.70;91.60;;;;;;5095115;28;20479;-88
2023/06/03 00:29:57;;;;;;;4.30;1.10;;;14.70;91.90;;;;;;5095268;28;20440;-88
2023/06/03 00:32:24;;;;;;;2.50;1.63;;;14.70;91.70;;;;;;5094831;28;20429;-88
2023/06/03 00:34:50;;;;;;;3.43;1.80;;;14.70;91.80;;;;;;5094647;28;20448;-88
2023/06/03 00:37:18;;;;;;;1.47;1.20;;;14.70;91.90;;;;;;5094945;28;20436;-88
2023/06/03 00:39:45;;;;;;;2.23;1.33;;;14.70;91.70;;;;;;5094922;28;20820;-88
2023/06/03 00:42:12;;;;;;;4.97;1.40;;;14.60;92.00;;;;;;5094884;28;20446;-88
2023/06/03 00:44:39;;;;;;;5.77;1.20;;;14.60;91.90;;;;;;5094710;28;20471;-88
2023/06/03 00:47:07;;;;;;;1.80;1.50;;;14.50;92.00;;;;;;5094430;28;21075;-88
2023/06/03 00:49:35;;;;;;;5.37;1.50;;;14.50;92.20;;;;;;5095360;28;20440;-88
2023/06/03 00:52:02;;;;;;;2.07;1.77;;;14.50;92.60;;;;;;5094676;28;20448;-88
2023/06/03 00:54:31;;;;;;;4.27;1.17;;;14.50;92.80;;;;;;5094414;28;20950;-88
2023/06/03 00:56:58;;;;;;;8.73;2.00;;;14.50;92.80;;;;;;5094747;28;20927;-88
2023/06/03 00:59:25;;;;;;;5.23;1.47;;;14.50;92.60;;;;;;5094566;28;20444;-87
2023/06/03 01:01:52;;;;;;;1.50;1.03;;;14.50;93.00;;;;;;5094480;28;20458;-88
2023/06/03 01:04:25;;;;;;;1.70;1.60;;;14.50;93.20;;;;;;5094331;28;20440;-88
2023/06/03 01:07:06;;;;;;;1.63;0.90;;;14.40;93.30;;;;;;5094082;28;20436;-88
2023/06/03 01:09:44;;;;;;;3.83;1.53;;;14.40;93.40;;;;;;5094465;28;20464;-86
2023/06/03 01:12:20;;;;;;;4.23;2.00;;;14.30;93.40;;;;;;5094427;28;20436;-88
2023/06/03 01:14:54;;;;;;;2.73;2.03;;;14.30;93.70;;;;;;5094353;28;20463;-87
2023/06/03 01:17:23;;;;;;;2.00;1.50;;;14.30;93.90;;;;;;5094149;28;21035;-88
2023/06/03 01:19:52;;;;;;;1.20;1.10;;;14.20;93.50;;;;;;5094086;28;20994;-87
2023/06/03 01:22:20;;;;;;;2.90;1.63;;;14.20;93.90;;;;;;5094179;28;20439;-88
2023/06/03 01:24:50;;;;;;;2.70;1.03;;;14.20;94.10;;;;;;5093703;28;20494;-88
2023/06/03 01:27:18;;;;;;;1.33;1.23;;;14.10;94.20;;;;;;5093791;28;20480;-88
2023/06/03 01:29:46;;;;;;;1.33;1.10;;;14.10;94.60;;;;;;5093668;28;20452;-88
2023/06/03 01:32:15;;;;;;;3.33;1.10;;;14.00;94.40;;;;;;5094026;28;20432;-88
2023/06/03 01:34:43;;;;;;;1.90;1.80;;;14.00;94.50;;;;;;5094160;28;20464;-88
2023/06/03 01:37:11;;;;;;;11.20;1.63;;;14.00;94.90;;;;;;5093963;28;20471;-87
2023/06/03 01:39:39;;;;;;;1.63;1.53;;;14.00;95.00;;;;;;5093972;28;20448;-88
2023/06/03 01:42:09;;;;;;;6.37;2.00;;;13.90;95.20;;;;;;5093631;28;20443;-88
2023/06/03 01:44:36;;;;;;;5.20;2.10;;;13.90;95.50;;;;;;5093753;28;20448;-88
2023/06/03 01:47:03;;;;;;;3.93;1.27;;;13.90;95.50;;;;;;5093738;28;20447;-88
2023/06/03 01:49:31;;;;;;;3.07;1.27;;;13.80;95.70;;;;;;5094100;28;20459;-88
2023/06/03 01:51:58;;;;;;;2.03;1.53;;;13.80;95.80;;;;;;5094048;28;20810;-88
2023/06/03 01:54:25;;;;;;;2.97;1.10;;;13.80;96.10;;;;;;5093654;28;20451;-88
2023/06/03 01:56:52;;;;;;;2.57;1.70;;;13.70;96.10;;;;;;5094071;28;20443;-88
2023/06/03 01:59:22;;;;;;;3.30;1.43;;;13.70;96.30;;;;;;5093785;28;20823;-88
2023/06/03 02:01:49;;;;;;;4.60;1.27;;;13.70;96.60;;;;;;5093839;28;20849;-88
2023/06/03 02:04:16;;;;;;;12.23;1.63;;;13.60;97.10;;;;;;5093686;28;20450;-87
2023/06/03 02:06:48;;;;;;;2.07;1.20;;;13.60;97.40;;;;;;5093767;28;20803;-88
2023/06/03 02:09:14;;;;;;;3.43;1.00;;;13.50;97.70;;;;;;5093494;28;20460;-88
2023/06/03 02:11:43;;;;;;;1.20;1.10;;;13.50;98.00;;;;;;5093610;28;21022;-88
2023/06/03 02:14:09;;;;;;;2.23;1.40;;;13.50;98.00;;;;;;5093718;28;20444;-88
2023/06/03 02:16:38;;;;;;;3.90;1.80;;;13.50;98.40;;;;;;5093682;28;20464;-88
2023/06/03 02:19:11;;;;;;;1.73;1.33;;;13.50;98.70;;;;;;5093709;28;20447;-88
2023/06/03 02:21:39;;;;;;;2.60;1.90;;;13.40;98.90;;;;;;5093273;28;20471;-88
2023/06/03 02:24:06;;;;;;;1.60;1.40;;;13.30;99.10;;;;;;5093539;28;20440;-88
2023/06/03 02:26:33;;;;;;;9.53;1.90;;;13.30;99.50;;;;;;5093608;28;20471;-88
2023/06/03 02:29:00;;;;;;;1.83;1.40;;;13.30;99.80;;;;;;5093488;28;20522;-87
2023/06/03 02:31:27;;;;;;;1.60;1.50;;;13.20;99.90;;;;;;5093575;28;20451;-88
2023/06/03 02:33:55;;;;;;;2.87;1.33;;;13.20;99.90;;;;;;5093968;28;20460;-88
2023/06/03 02:36:21;;;;;;;6.43;1.20;;;13.10;99.90;;;;;;5093617;28;20468;-88
2023/06/03 02:38:48;;;;;;;1.83;1.30;;;13.20;99.90;;;;;;5093628;28;20443;-88
2023/06/03 02:41:15;;;;;;;2.47;1.63;;;13.10;99.90;;;;;;5093216;28;20452;-88
2023/06/03 02:43:42;;;;;;;4.03;1.70;;;13.10;99.90;;;;;;5093338;28;20455;-88
2023/06/03 02:46:09;;;;;;;5.47;1.70;;;13.10;99.90;;;;;;5093667;28;20463;-88
2023/06/03 02:48:36;;;;;;;1.70;1.20;;;13.10;99.90;;;;;;5093414;28;20484;-88
2023/06/03 02:51:04;;;;;;;2.23;1.60;;;13.00;99.90;;;;;;5093468;28;20448;-88
2023/06/03 02:53:31;;;;;;;4.90;2.10;;;12.90;99.90;;;;;;5095389;28;20501;-88
2023/06/03 02:55:58;;;;;;;2.83;1.53;;;12.90;99.90;;;;;;5096807;28;20562;-88
2023/06/03 02:58:25;;;;;;;1.60;1.50;;;13.00;99.90;;;;;;5096981;28;20440;-88
2023/06/03 03:00:51;;;;;;;3.13;1.47;;;12.90;99.90;;;;;;5097063;28;20454;-87
2023/06/03 03:03:18;;;;;;;2.10;1.30;;;12.80;99.90;;;;;;5104395;28;20440;-88
2023/06/03 03:05:46;;;;;;;1.67;1.50;;;12.80;99.90;;;;;;5097875;28;20468;-88
2023/06/03 03:08:14;;;;;;;3.47;2.30;;;12.80;99.90;;;;;;5097245;28;20837;-88
2023/06/03 03:10:41;;;;;;;3.00;1.93;;;12.80;99.90;;;;;;5096922;28;20589;-88
2023/06/03 03:13:08;;;;;;;5.13;2.20;;;12.80;99.90;;;;;;5096907;28;20459;-88
2023/06/03 03:15:35;;;;;;;3.10;1.63;;;12.80;99.90;;;;;;5096886;28;20468;-88
2023/06/03 03:18:02;;;;;;;4.40;1.70;;;12.80;99.90;;;;;;5096638;28;20440;-88
2023/06/03 03:20:29;;;;;;;6.13;1.77;;;12.70;99.90;;;;;;5096187;28;21033;-88
2023/06/03 03:22:56;;;;;;;2.37;0.93;;;12.70;99.90;;;;;;5096366;28;20432;-88
2023/06/03 03:25:24;;;;;;;5.03;1.50;;;12.70;99.90;;;;;;5096498;28;20476;-88
2023/06/03 03:27:51;;;;;;;2.20;1.50;;;12.70;99.90;;;;;;5096503;28;20990;-88
2023/06/03 03:30:18;;;;;;;6.63;1.70;;;12.70;99.90;;;;;;5096378;28;20452;-88
2023/06/03 03:32:45;;;;;;;2.53;1.60;;;12.60;99.90;;;;;;5096365;28;20458;-88
2023/06/03 03:35:14;;;;;;;1.80;1.60;;;12.70;99.90;;;;;;5096169;28;20464;-87
2023/06/03 03:37:41;;;;;;;3.20;1.77;;;12.60;99.90;;;;;;5096240;28;20436;-88
2023/06/03 03:40:17;;;;;;;2.70;1.27;;;12.60;99.90;;;;;;5095762;28;20458;-88
2023/06/03 03:42:49;;;;;;;7.57;2.33;;;12.60;99.90;;;;;;5096226;28;20440;-88
2023/06/03 03:45:18;;;;;;;2.97;1.50;;;12.60;99.90;;;;;;5096347;28;20470;-88
2023/06/03 03:47:45;;;;;;;1.63;1.40;;;12.70;99.90;;;;;;5095850;28;20483;-88
2023/06/03 03:50:34;;;;;;;1.87;1.73;;;12.60;99.90;;;;;;5095892;28;20452;-88
2023/06/03 03:53:04;;;;;;;1.20;1.03;;;12.60;99.90;;;;;;5095802;28;20437;-88
2023/06/03 03:55:32;;;;;;;4.90;2.27;;;12.60;99.90;;;;;;5095883;28;20467;-88
2023/06/03 03:58:04;;;;;;;3.33;1.60;;;12.60;99.90;;;;;;5095629;28;20447;-88
2023/06/03 04:00:33;;;;;;;2.70;1.70;;;12.60;99.90;;;;;;5095816;28;20405;-87
2023/06/03 04:03:00;;;;;;;3.00;1.13;;;12.60;99.90;;;;;;5095823;28;20440;-87
2023/06/03 04:05:27;;;;;;;2.60;1.10;;;12.70;99.90;;;;;;5095044;28;20513;-86
2023/06/03 04:07:55;;;;;;;1.47;1.37;;;12.70;99.90;;;;;;5095592;28;20480;-88
2023/06/03 04:10:23;;;;;;;2.43;1.57;;;12.80;99.90;;;;;;5095989;28;20517;-88
2023/06/03 04:12:50;;;;;;;2.10;1.40;;;12.80;99.90;;;;;;5095937;28;20436;-88
2023/06/03 04:15:24;;;;;;;2.00;1.60;;;12.80;99.90;;;;;;5095452;28;20468;-88
2023/06/03 04:17:51;;;;;;;2.07;1.20;;;12.80;99.90;;;;;;5095976;28;20441;-88
2023/06/03 04:20:40;;;;;;;2.33;1.80;;;12.80;99.90;;;;;;5095049;28;20472;-88
2023/06/03 04:23:14;;;;;;;2.17;1.50;;;12.90;99.90;;;;;;5095491;28;20428;-88
2023/06/03 04:25:43;;;;;;;6.30;1.73;;;13.00;99.90;;;;;;5095252;28;20459;-88
2023/06/03 04:28:10;;;;;;;1.37;0.90;;;13.00;99.90;;;;;;5095020;28;20877;-88
2023/06/03 04:30:38;;;;;;;1.80;1.43;;;13.00;99.90;;;;;;5095082;28;20511;-87
2023/06/03 04:33:06;;;;;;;3.03;1.10;;;13.10;99.90;;;;;;5095175;28;20459;-88
2023/06/03 04:35:33;;;;;;;3.23;1.57;;;13.10;99.90;;;;;;5094838;28;20471;-88
2023/06/03 04:38:00;;;;;;;2.80;1.87;;;13.20;99.90;;;;;;5095038;28;20456;-88
2023/06/03 04:40:27;;;;;;;6.47;2.20;;;13.20;99.90;;;;;;5094728;28;20456;-88
2023/06/03 04:42:55;;;;;;;2.33;1.60;;;13.20;99.90;;;;;;5094763;28;20501;-88
2023/06/03 04:45:23;;;;;;;4.47;1.43;;;13.30;99.90;;;;;;5094833;28;20547;-88
2023/06/03 04:47:56;;;;;;;3.03;1.50;;;13.30;99.90;;;;;;5094583;28;20444;-88
2023/06/03 04:50:24;;;;;;;5.00;1.70;;;13.30;99.90;;;;;;5094789;28;20436;-88
2023/06/03 04:52:51;;;;;;;3.50;1.70;;;13.40;99.90;;;;;;5094288;28;20456;-88
2023/06/03 04:55:18;;;;;;;5.40;1.50;;;13.50;99.90;;;;;;5094238;28;21005;-88
2023/06/03 04:57:45;;;;;;;2.23;1.27;;;13.50;99.90;;;;;;5094668;28;20433;-88
2023/06/03 05:00:16;;;;;;;6.63;2.00;;;13.60;99.90;;;;;;5094598;28;20444;-88
2023/06/03 05:02:44;;;;;;;2.40;1.77;;;13.60;99.90;;;;;;5094384;28;20440;-88
2023/06/03 05:05:12;;;;;;;4.33;2.10;;;13.70;99.90;;;;;;5094934;28;20471;-88
2023/06/03 05:07:39;;;;;;;2.90;1.50;;;13.70;99.90;;;;;;5094183;28;20443;-87
2023/06/03 05:10:07;;;;;;;3.10;1.50;;;13.80;99.90;;;;;;5094379;28;20994;-88
2023/06/03 05:12:34;;;;;;;3.53;1.57;;;13.80;99.90;;;;;;5094190;28;20452;-88
2023/06/03 05:15:01;;;;;;;2.57;1.60;;;13.90;99.90;;;;;;5093753;28;20458;-88
2023/06/03 05:17:27;;;;;;;2.50;1.90;;;14.00;99.90;;;;;;5094045;28;20449;-88
2023/06/03 05:19:54;;;;;;;3.50;1.80;;;14.00;99.90;;;;;;5094812;28;20502;-88
2023/06/03 05:22:22;;;;;;;3.43;1.97;;;14.10;99.90;;;;;;5094134;28;20424;-88
2023/06/03 05:24:49;;;;;;;3.00;1.80;;;14.20;99.90;;;;;;5094004;28;20471;-88
2023/06/03 05:27:16;;;;;;;4.60;2.17;;;14.20;99.90;;;;;;5094309;28;20810;-88
2023/06/03 05:29:42;;;;;;;2.67;1.37;;;14.30;99.90;;;;;;5093950;28;20480;-88
2023/06/03 05:32:09;;;;;;;7.47;2.03;;;14.30;99.90;;;;;;5093818;28;20459;-88
2023/06/03 05:34:36;;;;;;;3.50;1.63;;;14.40;99.90;;;;;;5093876;28;20813;-88
2023/06/03 05:37:03;;;;;;;5.63;2.00;;;14.50;99.90;;;;;;5094238;28;20440;-88
2023/06/03 05:39:31;;;;;;;4.33;1.73;;;14.60;99.90;;;;;;5093546;28;20455;-88
2023/06/03 05:41:58;;;;;;;7.43;2.10;;;14.60;99.90;;;;;;5094056;28;20444;-88
2023/06/03 05:44:25;;;;;;;2.80;1.50;;;14.70;99.90;;;;;;5093986;28;20463;-88
2023/06/03 05:46:51;;;;;;;3.90;1.63;;;14.80;99.90;;;;;;5093909;28;20440;-88
2023/06/03 05:49:18;;;;;;;3.17;1.60;;;14.90;99.90;;;;;;5094033;28;20479;-88
2023/06/03 05:51:45;;;;;;;10.67;1.90;;;15.00;99.90;;;;;;5093890;28;20444;-87
2023/06/03 05:54:13;;;;;;;3.83;2.13;;;15.20;99.90;;;;;;5093999;28;20454;-88
2023/06/03 05:56:41;;;;;;;5.70;2.60;;;15.30;99.90;;;;;;5093789;28;20487;-88
2023/06/03 05:59:08;;;;;;;4.03;1.90;;;15.40;99.90;;;;;;5093848;28;20444;-88
2023/06/03 06:01:35;;;;;;;2.40;2.07;;;15.60;99.90;;;;;;5093834;28;20444;-88
2023/06/03 06:04:02;;;;;;;1.40;1.30;;;15.70;99.90;;;;;;5094137;28;20448;-89
2023/06/03 06:06:29;;;;;;;9.67;2.43;;;15.90;99.90;;;;;;5102733;28;20471;-89
2023/06/03 06:08:56;;;;;;;4.33;1.40;;;16.10;99.90;;;;;;5095578;28;20529;-89
2023/06/03 06:11:22;;;;;;;2.40;1.50;;;16.30;99.90;;;;;;5095211;28;20447;-88
2023/06/03 06:13:50;;;;;;;1.33;1.23;;;16.50;99.90;;;;;;5095237;28;20535;-89
2023/06/03 06:16:17;;;;;;;3.27;1.33;;;16.70;99.90;;;;;;5095125;28;20471;-89
2023/06/03 06:18:44;;;;;;;4.33;1.93;;;17.00;99.90;;;;;;5094288;28;20962;-88
2023/06/03 06:21:11;;;;;;;3.07;1.87;;;17.20;99.60;;;;;;5093551;28;20479;-89
2023/06/03 06:23:38;;;;;;;4.47;1.60;;;17.40;99.00;;;;;;5093949;28;20461;-88
2023/06/03 06:26:04;;;;;;;2.67;1.73;;;17.60;98.10;;;;;;5093777;28;20517;-88
2023/06/03 06:28:32;;;;;;;3.97;1.40;;;17.80;98.20;;;;;;5097774;28;20443;-88
2023/06/03 06:31:04;;;;;;;2.17;2.00;;;18.00;97.60;;;;;;5097927;28;20448;-89
2023/06/03 06:33:31;;;;;;;3.10;1.80;;;18.30;97.20;;;;;;5098130;28;20477;-89
2023/06/03 06:35:58;;;;;;;2.70;2.00;;;18.50;96.40;;;;;;5098057;28;20468;-89
2023/06/03 06:38:25;;;;;;;4.53;2.17;;;18.90;95.40;;;;;;5097710;28;20454;-90
2023/06/03 06:40:53;;;;;;;3.20;1.93;;;19.10;95.60;;;;;;5097731;28;20439;-90
2023/06/03 06:43:25;;;;;;;3.93;1.63;;;19.30;95.30;;;;;;5097529;28;20432;-89
2023/06/03 06:45:55;;;;;;;3.93;2.40;;;19.60;94.40;;;;;;5097501;28;20546;-89
2023/06/03 06:48:24;;;;;;;3.70;1.87;;;19.80;93.60;;;;;;5097287;28;20427;-90
2023/06/03 06:50:53;;;;;;;5.60;2.10;;;19.80;93.70;;;;;;5097444;28;20536;-89
2023/06/03 06:53:22;;;;;;;4.40;2.20;;;19.90;93.20;;;;;;5097399;28;20509;-89
2023/06/03 06:55:50;;;;;;;2.60;2.20;;;20.00;92.80;;;;;;5097279;28;20448;-89
2023/06/03 06:58:18;;;;;;;3.27;1.97;;;20.00;92.40;;;;;;5097116;28;20448;-89
2023/06/03 07:00:45;;;;;;;3.10;1.83;;;20.00;92.70;;;;;;5097088;28;20440;-89
2023/06/03 07:03:14;;;;;;;2.27;1.93;;;19.90;92.70;;;;;;5096869;28;20801;-89
2023/06/03 07:05:42;;;;;;;2.50;1.90;;;20.00;92.30;;;;;;5096859;28;20459;-90
2023/06/03 07:08:10;;;;;;;4.37;1.70;;;20.10;92.80;;;;;;5096973;28;20448;-88
2023/06/03 07:10:37;;;;;;;3.80;2.80;;;20.20;92.40;;;;;;5096827;28;20484;-88
2023/06/03 07:13:06;;;;;;;2.40;2.20;;;20.40;92.20;;;;;;5096973;28;20452;-88
2023/06/03 07:15:33;;;;;;;2.07;1.80;;;20.40;91.40;;;;;;5096662;28;20468;-88
2023/06/03 07:18:00;;;;;;;2.80;1.97;;;20.50;91.50;;;;;;5096528;28;20458;-87
2023/06/03 07:20:33;;;;;;;6.00;2.30;;;20.60;92.20;;;;;;5096123;28;20468;-88
2023/06/03 07:23:03;;;;;;;5.17;1.53;;;20.80;90.70;;;;;;5096836;28;20432;-89
2023/06/03 07:25:36;;;;;;;2.47;2.20;;;21.00;91.20;;;;;;5096552;28;20464;-89
2023/06/03 07:28:04;;;;;;;1.77;1.50;;;21.20;90.30;;;;;;5096479;28;20432;-88
2023/06/03 07:30:35;;;;;;;2.63;2.13;;;21.30;89.80;;;;;;5097661;28;20990;-88
2023/06/03 07:33:04;;;;;;;1.57;1.47;;;21.50;90.20;;;;;;5097133;28;20969;-88
2023/06/03 07:35:31;;;;;;;2.77;2.00;;;21.70;89.30;;;;;;5096589;28;20474;-89
2023/06/03 07:37:58;;;;;;;2.27;1.90;;;22.00;89.30;;;;;;5096666;28;20491;-88
2023/06/03 07:40:38;;;;;;;2.70;1.63;;;22.40;87.80;;;;;;5096481;28;20447;-87
2023/06/03 07:43:06;;;;;;;2.50;1.90;;;22.90;85.70;;;;;;5096246;28;21345;-88
2023/06/03 07:45:33;;;;;;;8.90;2.60;;;23.40;84.60;;;;;;5096938;28;20596;-88
2023/06/03 07:48:01;;;;;;;1.83;1.73;;;24.00;83.40;;;;;;5096712;28;20212;-89
2023/06/03 07:50:28;;;;;;;2.45;2.25;;;24.70;82.00;;;;;;5097361;28;20213;-89
2023/06/03 07:53:00;;;;;;;1.52;1.42;;;25.50;81.10;;;;;;5096846;28;20200;-88
2023/06/03 07:55:34;;;;;;;2.97;2.22;;;26.50;76.10;;;;;;5096664;28;20227;-89
2023/06/03 07:58:01;;;;;;;2.45;2.25;;;27.10;72.10;;;;;;5096738;28;20650;-88
2023/06/03 08:00:28;;;;;;;1.65;1.55;;;27.70;71.50;;;;;;5097352;28;20205;-89
2023/06/03 08:02:54;;;;;;;7.90;1.70;;;28.30;69.60;;;;;;5096955;28;20207;-90
2023/06/03 08:05:31;;;;;;;1.75;1.55;;;28.80;66.60;;;;;;5097232;28;20221;-90
2023/06/03 08:07:57;;;;;;;2.28;2.08;;;29.20;65.10;;;;;;5097136;28;20275;-90
2023/06/03 08:10:27;;;;;;;3.72;1.67;;;29.50;63.10;;;;;;5096906;28;20306;-89
2023/06/03 08:12:55;;;;;;;1.92;1.83;;;29.40;65.00;;;;;;5097101;28;20206;-89
2023/06/03 08:15:31;;;;;;;1.35;1.25;;;29.50;63.80;;;;;;5097299;28;20344;-90
2023/06/03 08:17:59;;;;;;;4.80;1.67;;;29.70;61.40;;;;;;5098091;28;20276;-93
2023/06/03 08:20:27;;;;;;;3.00;1.42;;;29.70;62.10;;;;;;5100252;28;20650;-89
2023/06/03 08:22:55;;;;;;;1.40;1.25;;;29.80;62.80;;;;;;5099003;28;20206;-89
2023/06/03 08:25:22;;;;;;;1.75;1.65;;;30.00;61.40;;;;;;5105671;28;20248;-90
2023/06/03 08:27:50;;;;;;;2.75;1.50;;;29.90;59.50;;;;;;5100484;28;20199;-90
2023/06/03 08:30:20;;;;;;;1.42;1.33;;;29.80;60.40;;;;;;5099863;28;20230;-90
2023/06/03 08:32:47;;;;;;;2.20;1.40;;;29.80;59.30;;;;;;5100475;28;20218;-90
2023/06/03 08:35:15;;;;;;;1.95;1.35;;;29.20;60.00;;;;;;5100142;28;20229;-89
2023/06/03 08:37:43;;;;;;;1.60;1.50;;;29.00;61.30;;;;;;5099765;28;20211;-89
2023/06/03 08:40:11;;;;;;;1.92;1.83;;;28.70;61.80;;;;;;5099390;28;20199;-89
2023/06/03 08:42:43;;;;;;;4.85;2.10;;;28.20;62.50;;;;;;5098385;28;20558;-90
2023/06/03 08:45:11;;;;;;;4.30;1.77;;;27.70;62.50;;;;;;5096713;28;20228;-90
2023/06/03 08:48:05;;;;;;;1.75;1.60;;;27.10;65.10;;;;;;5097099;28;20205;-89
2023/06/03 08:50:33;;;;;;;1.95;1.63;;;26.60;65.50;;;;;;5095645;28;20209;-89
2023/06/03 08:53:04;;;;;;;2.13;1.90;;;26.30;67.70;;;;;;5096586;28;20209;-89
2023/06/03 08:55:31;;;;;;;5.03;2.53;;;26.20;66.90;;;;;;5096519;28;20305;-89
2023/06/03 08:58:04;;;;;;;3.90;1.80;;;26.20;67.40;;;;;;5096735;28;20202;-89
2023/06/03 09:00:33;;;;;;;1.63;1.30;;;26.30;67.10;;;;;;5097559;28;20282;-89
2023/06/03 09:03:02;;;;;;;2.80;2.17;;;26.60;67.00;;;;;;5096549;28;20293;-92
2023/06/03 09:05:29;;;;;;;2.03;1.83;;;27.20;66.40;;;;;;5095727;28;20251;-85
2023/06/03 09:07:57;;;;;;;2.30;2.05;;;27.60;65.10;;;;;;5095631;28;20205;-85
2023/06/03 09:10:26;;;;;;;1.73;1.63;;;27.60;64.30;;;;;;5100995;28;20228;-87
2023/06/03 09:12:54;;;;;;;2.38;1.50;;;27.30;65.10;;;;;;5098083;28;20186;-87
2023/06/03 09:15:22;;;;;;;3.03;2.05;;;26.80;66.40;;;;;;5096182;28;20221;-88
2023/06/03 09:17:49;;;;;;;3.08;2.25;;;26.50;66.80;;;;;;5095755;28;20207;-87
2023/06/03 09:20:17;;;;;;;1.63;1.52;;;26.10;67.40;;;;;;5094855;28;20283;-87
2023/06/03 09:22:46;;;;;;;2.80;2.50;;;25.70;70.50;;;;;;5094980;28;20589;-86
2023/06/03 09:25:13;;;;;;;2.28;2.10;;;25.40;69.00;;;;;;5095019;28;20271;-86
2023/06/03 09:27:41;;;;;;;3.55;2.13;;;25.20;70.70;;;;;;5094798;28;20205;-86
2023/06/03 09:30:09;;;;;;;3.08;1.52;;;25.00;69.70;;;;;;5095011;28;20600;-86
2023/06/03 09:32:37;;;;;;;1.80;1.48;;;24.60;70.70;;;;;;5095264;28;20206;-86
2023/06/03 09:35:05;;;;;;;2.35;1.85;;;24.30;73.10;;;;;;5095107;28;20586;-86
2023/06/03 09:37:34;;;;;;;7.30;2.42;;;24.30;73.80;;;;;;5094542;28;20292;-86
2023/06/03 09:40:01;;;;;;;3.88;2.35;;;24.40;73.70;;;;;;5093705;28;20197;-86
2023/06/03 09:42:41;;;;;;;5.88;2.33;;;24.40;73.00;;;;;;5094246;28;20196;-86
2023/06/03 09:45:23;;;;;;;3.03;2.42;;;24.40;73.40;;;;;;5093659;28;20286;-86
2023/06/03 09:47:50;;;;;;;2.50;2.00;;;24.30;73.50;;;;;;5094088;28;20559;-86
2023/06/03 09:50:17;;;;;;;2.45;2.15;;;24.40;73.80;;;;;;5093796;28;20589;-86
2023/06/03 09:52:45;;;;;;;7.25;2.25;;;24.30;73.70;;;;;;5093689;28;20205;-86
2023/06/03 09:55:13;;;;;;;3.53;2.97;;;24.40;73.90;;;;;;5093603;28;20228;-87
2023/06/03 09:57:40;;;;;;;3.30;2.50;;;24.30;74.80;;;;;;5093660;28;20201;-86
2023/06/03 10:00:10;;;;;;;4.05;2.70;;;24.30;73.90;;;;;;5093338;28;20688;-86
2023/06/03 10:02:38;;;;;;;3.13;1.92;;;24.30;74.30;;;;;;5095520;28;20193;-86
2023/06/03 10:05:06;;;;;;;3.78;2.70;;;24.30;73.90;;;;;;5097841;28;20224;-86
2023/06/03 10:07:33;;;;;;;11.23;2.43;;;24.10;74.30;;;;;;5097388;28;20672;-86
2023/06/03 10:10:08;;;;;;;2.40;1.90;;;24.00;76.00;;;;;;5097448;28;20217;-86
2023/06/03 10:12:34;;;;;;;3.00;2.42;;;24.00;75.90;;;;;;5098168;28;20242;-86
2023/06/03 10:15:01;;;;;;;2.55;2.35;;;24.20;77.10;;;;;;5097342;28;20228;-86
2023/06/03 10:17:28;;;;;;;4.13;2.72;;;24.30;76.40;;;;;;5097546;28;20206;-87
2023/06/03 10:19:55;;;;;;;3.50;2.25;;;24.20;75.20;;;;;;5097290;28;20223;-86
2023/06/03 10:22:23;;;;;;;2.58;2.38;;;24.10;75.40;;;;;;5097186;28;20192;-86
2023/06/03 10:24:52;;;;;;;2.75;2.53;;;24.30;76.20;;;;;;5097375;28;20228;-86
2023/06/03 10:27:21;;;;;;;6.57;2.40;;;24.40;75.40;;;;;;5097274;28;20209;-86
2023/06/03 10:29:51;;;;;;;3.78;2.92;;;24.50;76.00;;;;;;5097256;28;20201;-87
2023/06/03 10:32:20;;;;;;;2.60;2.40;;;24.60;75.10;;;;;;5097271;28;20197;-86
2023/06/03 10:34:49;;;;;;;2.90;2.70;;;24.70;74.10;;;;;;5097094;28;20225;-86
2023/06/03 10:37:16;;;;;;;3.13;2.70;;;24.60;74.50;;;;;;5097135;28;20288;-86
2023/06/03 10:39:44;;;;;;;3.85;2.92;;;24.60;75.20;;;;;;5096952;28;20201;-86
2023/06/03 10:42:12;;;;;;;3.55;2.15;;;24.50;75.10;;;;;;5096847;28;20213;-86
2023/06/03 10:44:40;;;;;;;2.55;2.30;;;24.40;75.50;;;;;;5096697;28;20209;-86
2023/06/03 10:47:11;;;;;;;2.20;1.98;;;24.40;77.00;;;;;;5096823;28;20228;-86
2023/06/03 10:49:41;;;;;;;2.25;2.03;;;24.50;75.50;;;;;;5096666;28;20194;-86
2023/06/03 10:52:49;;;;;;;2.10;1.88;;;24.40;75.10;;;;;;5096372;28;20197;-86
2023/06/03 10:55:28;;;;;;;3.08;2.95;;;24.50;76.60;;;;;;5096741;28;20221;-86
2023/06/03 10:58:01;;;;;;;5.90;2.95;;;24.60;74.90;;;;;;5096678;28;20185;-87
2023/06/03 11:00:55;;;;;;;3.58;2.10;;;24.80;75.50;;;;;;5096292;28;20190;-83
2023/06/03 11:03:22;;;;;;;2.95;2.75;;;25.00;75.60;;;;;;5096456;28;20209;-87
2023/06/03 11:05:49;;;;;;;2.75;2.22;;;25.10;75.50;;;;;;5096491;28;20213;-86
2023/06/03 11:09:00;;;;;;;2.63;2.10;;;25.10;73.30;;;;;;5096047;28;20668;-87
2023/06/03 11:12:02;;;;;;;8.50;2.85;;;25.00;74.00;;;;;;5096317;28;20221;-84
2023/06/03 11:14:54;;;;;;;4.85;2.03;;;24.70;73.70;;;;;;5095190;28;20243;-85
2023/06/03 11:17:23;;;;;;;3.00;2.70;;;24.30;74.70;;;;;;5092527;28;20231;-87
2023/06/03 11:19:51;;;;;;;2.22;1.88;;;24.10;77.30;;;;;;5095951;28;20201;-87
2023/06/03 11:22:44;;;;;;;2.95;2.50;;;24.20;76.10;;;;;;5096122;28;20254;-86
2023/06/03 11:25:27;;;;;;;2.80;2.50;;;24.20;75.80;;;;;;5095820;28;20221;-86
2023/06/03 11:28:15;;;;;;;3.93;2.27;;;24.30;75.60;;;;;;5096020;28;20258;-86
2023/06/03 11:30:54;;;;;;;5.80;2.92;;;24.30;76.30;;;;;;5095326;28;20227;-86
2023/06/03 11:33:22;;;;;;;3.28;2.95;;;24.30;76.10;;;;;;5095901;28;20231;-86
2023/06/03 11:35:49;;;;;;;3.83;2.30;;;24.30;76.10;;;;;;5095804;28;20225;-87
2023/06/03 11:38:16;;;;;;;5.22;2.97;;;24.30;75.10;;;;;;5095848;28;20295;-85
2023/06/03 11:40:45;;;;;;;3.63;2.33;;;24.30;75.80;;;;;;5095747;28;20224;-86
2023/06/03 11:43:12;;;;;;;5.30;2.75;;;24.40;74.80;;;;;;5095321;28;20673;-87
2023/06/03 11:45:39;;;;;;;6.13;2.75;;;24.40;75.80;;;;;;5095634;28;20229;-87
2023/06/03 11:48:07;;;;;;;2.90;2.70;;;24.50;75.80;;;;;;5095359;28;20205;-87
2023/06/03 11:50:46;;;;;;;7.07;2.25;;;24.50;75.30;;;;;;5095408;28;20248;-86
2023/06/03 11:53:33;;;;;;;2.75;2.45;;;24.50;75.10;;;;;;5095444;28;20181;-86
2023/06/03 11:56:04;;;;;;;2.85;2.25;;;24.50;76.00;;;;;;5095441;28;20221;-87
2023/06/03 11:58:31;;;;;;;7.55;3.05;;;24.50;76.50;;;;;;5095079;28;20201;-86
2023/06/03 12:01:06;;;;;;;3.67;2.17;;;24.50;76.80;;;;;;5095017;28;20197;-86
2023/06/03 12:03:33;;;;;;;3.42;2.42;;;24.50;76.10;;;;;;5095005;28;20684;-86
2023/06/03 12:06:03;;;;;;;3.42;2.17;;;24.40;76.50;;;;;;5095232;28;20229;-86
2023/06/03 12:08:43;;;;;;;2.28;2.08;;;24.60;75.70;;;;;;5094916;28;20702;-85
2023/06/03 12:11:10;;;;;;;2.42;2.28;;;24.80;76.40;;;;;;5095087;28;20206;-85
2023/06/03 12:13:41;;;;;;;2.75;2.25;;;24.90;76.20;;;;;;5095629;28;20555;-86
2023/06/03 12:16:07;;;;;;;2.67;2.47;;;25.00;75.70;;;;;;5095892;28;20245;-87
2023/06/03 12:18:34;;;;;;;3.13;2.65;;;25.10;74.50;;;;;;5094791;28;20189;-86
2023/06/03 12:21:21;;;;;;;3.05;2.65;;;25.10;74.20;;;;;;5094563;28;20232;-86
2023/06/03 12:23:47;;;;;;;3.83;2.75;;;25.00;73.60;;;;;;5094679;28;20193;-86
2023/06/03 12:26:14;;;;;;;2.35;2.15;;;24.90;73.20;;;;;;5094599;28;20221;-86
2023/06/03 12:28:41;;;;;;;2.70;2.20;;;24.90;72.90;;;;;;5094900;28;20204;-86
2023/06/03 12:31:14;;;;;;;2.35;2.15;;;24.80;74.10;;;;;;5094429;28;20302;-86
2023/06/03 12:33:43;;;;;;;2.53;2.33;;;24.80;73.00;;;;;;5094637;28;20291;-86
2023/06/03 12:36:10;;;;;;;7.07;2.90;;;24.60;72.50;;;;;;5094528;28;20229;-86
2023/06/03 12:38:57;;;;;;;3.42;3.00;;;24.50;73.20;;;;;;5094644;28;20284;-85
2023/06/03 12:41:24;;;;;;;2.75;2.00;;;24.50;74.70;;;;;;5094581;28;20185;-86
2023/06/03 12:44:00;;;;;;;2.38;2.10;;;24.50;74.10;;;;;;5094484;28;20202;-86
2023/06/03 12:46:27;;;;;;;2.03;1.92;;;24.60;74.30;;;;;;5094187;28;20769;-86
2023/06/03 12:48:56;;;;;;;2.25;2.03;;;24.60;74.10;;;;;;5094457;28;20204;-86
2023/06/03 12:51:25;;;;;;;3.90;2.20;;;24.60;73.90;;;;;;5093960;28;20225;-86
2023/06/03 12:53:56;;;;;;;4.85;2.47;;;24.50;73.60;;;;;;5094281;28;20201;-86
2023/06/03 12:56:24;;;;;;;2.30;1.90;;;24.40;74.00;;;;;;5094234;28;20225;-86